Time;durP1;ratioP1;P1;durP2;ratioP2;P2;SDS_P1;SDS_P2;PMS_P1;PMS_P2;Temp;Humidity;BMP_temperature;BMP_pressure;BME280_temperature;BME280_humidity;BME280_pressure;Samples;Min_cycle;Max_cycle;Signal;HPM_P1;HPM_P2
2022/10/04 00:02:10;;;;;;;4.50;2.13;;;11.50;99.90;;;;;;5109576;28;20396;-83
2022/10/04 00:04:50;;;;;;;8.02;2.40;;;11.50;99.90;;;;;;5109610;28;20039;-83
2022/10/04 00:07:22;;;;;;;7.75;2.70;;;11.50;99.90;;;;;;5109429;28;20127;-83
2022/10/04 00:09:54;;;;;;;5.80;2.33;;;11.40;99.90;;;;;;5109147;28;20079;-83
2022/10/04 00:12:23;;;;;;;7.50;2.53;;;11.50;99.90;;;;;;5109292;28;20392;-83
2022/10/04 00:14:54;;;;;;;7.80;2.40;;;11.50;99.90;;;;;;5109881;28;20050;-83
2022/10/04 00:17:26;;;;;;;8.93;2.55;;;11.50;99.90;;;;;;5126025;28;20802;-82
2022/10/04 00:19:54;;;;;;;4.47;2.20;;;11.40;99.90;;;;;;5109621;28;20036;-83
2022/10/04 00:22:32;;;;;;;5.53;2.15;;;11.40;99.90;;;;;;5109741;28;20036;-83
2022/10/04 00:25:12;;;;;;;7.32;4.05;;;11.50;99.90;;;;;;5109418;28;20048;-83
2022/10/04 00:27:59;;;;;;;6.60;2.65;;;11.40;99.90;;;;;;5109415;28;20114;-83
2022/10/04 00:30:37;;;;;;;11.50;2.83;;;11.40;99.90;;;;;;5109083;28;20036;-83
2022/10/04 00:33:04;;;;;;;6.88;2.55;;;11.40;99.90;;;;;;5092726;28;20066;-82
2022/10/04 00:35:45;;;;;;;5.68;2.70;;;11.40;99.90;;;;;;5109324;28;20126;-83
2022/10/04 00:38:23;;;;;;;7.30;2.65;;;11.40;99.90;;;;;;5109258;28;20043;-83
2022/10/04 00:41:05;;;;;;;7.68;2.42;;;11.40;99.90;;;;;;5109660;28;20123;-83
2022/10/04 00:43:47;;;;;;;7.30;2.72;;;11.40;99.90;;;;;;5109272;28;20047;-82
2022/10/04 00:46:20;;;;;;;6.80;2.90;;;11.40;99.90;;;;;;5109422;28;20032;-83
2022/10/04 00:48:53;;;;;;;9.45;2.97;;;11.30;99.90;;;;;;5109426;28;20040;-83
2022/10/04 00:51:49;;;;;;;6.90;2.70;;;11.30;99.90;;;;;;5109077;28;20492;-83
2022/10/04 00:54:32;;;;;;;6.95;2.80;;;11.30;99.90;;;;;;5109479;28;20123;-83
2022/10/04 00:57:06;;;;;;;8.68;3.10;;;11.30;99.90;;;;;;5109020;28;20523;-83
2022/10/04 00:59:41;;;;;;;9.90;3.30;;;11.30;99.90;;;;;;5108867;28;20101;-83
2022/10/04 01:02:20;;;;;;;7.28;2.95;;;11.30;99.90;;;;;;5109126;28;20051;-83
2022/10/04 01:05:00;;;;;;;9.38;3.22;;;11.30;99.90;;;;;;5108952;28;20050;-83
2022/10/04 01:07:42;;;;;;;9.52;3.20;;;11.30;99.90;;;;;;5108548;28;20093;-83
2022/10/04 01:10:27;;;;;;;7.43;2.90;;;11.30;99.90;;;;;;5109049;28;20743;-83
2022/10/04 01:13:06;;;;;;;10.05;3.13;;;11.30;99.90;;;;;;5109084;28;20040;-83
2022/10/04 01:15:54;;;;;;;7.55;3.25;;;11.30;99.90;;;;;;5125616;28;20404;-83
2022/10/04 01:18:24;;;;;;;8.00;3.00;;;11.30;99.90;;;;;;5109040;28;20052;-83
2022/10/04 01:21:22;;;;;;;6.25;3.35;;;11.30;99.90;;;;;;5108943;28;20079;-82
2022/10/04 01:23:58;;;;;;;12.52;3.72;;;11.30;99.90;;;;;;5113064;28;20043;-83
2022/10/04 01:26:28;;;;;;;7.95;3.25;;;11.40;99.90;;;;;;5112826;28;20127;-83
2022/10/04 01:29:00;;;;;;;5.97;3.20;;;11.40;99.90;;;;;;5112444;28;20043;-83
2022/10/04 01:31:33;;;;;;;12.40;3.90;;;11.30;99.90;;;;;;5112206;28;20040;-83
2022/10/04 01:34:01;;;;;;;11.93;3.95;;;11.40;99.90;;;;;;5112675;28;20047;-83
2022/10/04 01:36:28;;;;;;;6.43;2.83;;;11.40;99.90;;;;;;5112370;28;20071;-83
2022/10/04 01:38:55;;;;;;;9.48;3.70;;;11.50;99.90;;;;;;5112467;28;20047;-83
2022/10/04 01:41:35;;;;;;;11.75;3.60;;;11.40;99.90;;;;;;5112681;28;20036;-83
2022/10/04 01:44:05;;;;;;;10.15;3.47;;;11.40;99.90;;;;;;5112091;28;20043;-83
2022/10/04 01:46:35;;;;;;;11.00;3.55;;;11.40;99.90;;;;;;5112527;28;20124;-83
2022/10/04 01:49:11;;;;;;;13.30;3.65;;;11.40;99.90;;;;;;5112593;28;20078;-83
2022/10/04 01:51:55;;;;;;;14.13;3.67;;;11.40;99.90;;;;;;5111965;28;20036;-83
2022/10/04 01:54:32;;;;;;;9.07;3.90;;;11.40;99.90;;;;;;5111984;28;20067;-83
2022/10/04 01:57:13;;;;;;;13.20;3.88;;;11.40;99.90;;;;;;5128795;28;20112;-83
2022/10/04 01:59:49;;;;;;;7.88;3.60;;;11.40;99.90;;;;;;5111844;28;20507;-83
2022/10/04 02:02:18;;;;;;;8.30;3.78;;;11.40;99.90;;;;;;5111956;28;20044;-83
2022/10/04 02:04:52;;;;;;;8.93;3.70;;;11.50;99.90;;;;;;5111875;28;20083;-83
2022/10/04 02:07:20;;;;;;;7.75;3.60;;;11.40;99.90;;;;;;5112385;28;20044;-83
2022/10/04 02:09:53;;;;;;;10.50;4.10;;;11.40;99.90;;;;;;5112132;28;20043;-83
2022/10/04 02:12:20;;;;;;;14.38;4.63;;;11.40;99.90;;;;;;5129403;28;20096;-83
2022/10/04 02:14:51;;;;;;;10.15;4.10;;;11.40;99.90;;;;;;5095249;28;20040;-83
2022/10/04 02:17:26;;;;;;;10.55;3.70;;;11.50;99.90;;;;;;5112091;28;20130;-83
2022/10/04 02:19:54;;;;;;;10.88;4.00;;;11.50;99.90;;;;;;5111972;28;20038;-83
2022/10/04 02:22:23;;;;;;;14.00;4.03;;;11.50;99.90;;;;;;5111859;28;20097;-83
2022/10/04 02:24:53;;;;;;;10.20;4.03;;;11.40;99.90;;;;;;5111373;28;20484;-83
2022/10/04 02:27:26;;;;;;;7.32;4.22;;;11.50;99.90;;;;;;5111494;28;20040;-83
2022/10/04 02:29:59;;;;;;;9.55;3.55;;;11.50;99.90;;;;;;5111803;28;20044;-83
2022/10/04 02:35:16;;;;;;;9.88;3.53;;;11.50;99.90;;;;;;5127639;28;20055;-83
2022/10/04 02:37:42;;;;;;;11.20;3.92;;;11.50;99.90;;;;;;5094544;28;20052;-83
2022/10/04 02:40:17;;;;;;;7.53;3.33;;;11.50;99.90;;;;;;5127906;28;20044;-83
2022/10/04 02:42:52;;;;;;;9.80;3.92;;;11.50;99.90;;;;;;5110927;28;20385;-83
2022/10/04 02:45:26;;;;;;;11.50;5.07;;;11.50;99.90;;;;;;5111340;28;20123;-83
2022/10/04 02:48:22;;;;;;;17.40;4.50;;;11.50;99.90;;;;;;5111089;28;20040;-83
2022/10/04 02:50:52;;;;;;;10.48;4.10;;;11.50;99.90;;;;;;5085085;28;20055;-83
2022/10/04 02:53:25;;;;;;;9.35;3.90;;;11.60;99.90;;;;;;5110654;28;20429;-83
2022/10/04 02:55:54;;;;;;;9.98;3.97;;;11.50;99.90;;;;;;5110809;28;20491;-83
2022/10/04 02:58:23;;;;;;;9.60;4.30;;;11.50;99.90;;;;;;5110726;28;20473;-83
2022/10/04 03:00:56;;;;;;;11.30;3.85;;;11.50;99.90;;;;;;5110919;28;20047;-83
2022/10/04 03:03:29;;;;;;;11.70;4.05;;;11.50;99.90;;;;;;5127955;28;20036;-83
2022/10/04 03:06:13;;;;;;;10.18;3.72;;;11.50;99.90;;;;;;5107707;28;20488;-83
2022/10/04 03:08:42;;;;;;;9.60;3.80;;;11.40;99.90;;;;;;5110624;28;20036;-83
2022/10/04 03:11:10;;;;;;;8.93;3.63;;;11.40;99.90;;;;;;5110775;28;20472;-83
2022/10/04 03:13:40;;;;;;;8.55;3.85;;;11.40;99.90;;;;;;5110740;28;20439;-83
2022/10/04 03:16:07;;;;;;;11.55;3.50;;;11.30;99.90;;;;;;5094359;28;20082;-83
2022/10/04 03:18:36;;;;;;;6.85;3.67;;;11.30;99.90;;;;;;5093897;28;20404;-83
2022/10/04 03:21:10;;;;;;;12.35;3.90;;;11.20;99.90;;;;;;5093824;28;20074;-83
2022/10/04 03:23:38;;;;;;;8.10;4.22;;;11.30;99.90;;;;;;5127007;28;20040;-83
2022/10/04 03:26:31;;;;;;;11.88;3.92;;;11.20;99.90;;;;;;5093926;28;20178;-83
2022/10/04 03:28:59;;;;;;;8.63;4.28;;;11.20;99.90;;;;;;5110618;28;20059;-83
2022/10/04 03:31:27;;;;;;;7.35;4.10;;;11.20;99.90;;;;;;5093851;28;20089;-83
2022/10/04 03:33:56;;;;;;;10.10;4.20;;;11.20;99.90;;;;;;5109749;28;20039;-82
2022/10/04 03:36:24;;;;;;;10.82;4.60;;;11.10;99.90;;;;;;5093420;28;20570;-83
2022/10/04 03:38:54;;;;;;;9.00;3.97;;;11.10;99.90;;;;;;5110542;28;20040;-83
2022/10/04 03:41:24;;;;;;;9.23;4.10;;;11.20;99.90;;;;;;5110108;28;20402;-83
2022/10/04 03:43:53;;;;;;;12.60;4.05;;;11.10;99.90;;;;;;5109924;28;20496;-83
2022/10/04 03:46:22;;;;;;;15.82;4.40;;;11.10;99.90;;;;;;5093210;28;20048;-83
2022/10/04 03:48:52;;;;;;;10.52;4.28;;;11.10;99.90;;;;;;5110368;28;20048;-83
2022/10/04 03:51:21;;;;;;;10.50;4.68;;;11.10;99.90;;;;;;5110403;28;20032;-83
2022/10/04 03:54:00;;;;;;;8.52;4.00;;;11.10;99.90;;;;;;5110025;28;20058;-83
2022/10/04 03:56:35;;;;;;;15.00;4.43;;;11.10;99.90;;;;;;5109655;28;20059;-83
2022/10/04 03:59:04;;;;;;;11.80;4.82;;;11.10;99.90;;;;;;5126618;28;20040;-83
2022/10/04 04:01:43;;;;;;;9.30;3.92;;;11.10;99.90;;;;;;5110125;28;20068;-83
2022/10/04 04:04:10;;;;;;;7.07;3.90;;;11.10;99.90;;;;;;5109928;28;20031;-83
2022/10/04 04:06:46;;;;;;;10.70;4.18;;;11.10;99.90;;;;;;5126662;28;20044;-83
2022/10/04 04:09:22;;;;;;;12.63;4.40;;;11.10;99.90;;;;;;5126622;28;20408;-83
2022/10/04 04:11:50;;;;;;;10.23;4.30;;;11.00;99.90;;;;;;5126248;28;20077;-83
2022/10/04 04:14:25;;;;;;;9.07;4.22;;;11.00;99.90;;;;;;5109421;28;20040;-83
2022/10/04 04:17:14;;;;;;;9.68;4.53;;;11.00;99.90;;;;;;5109669;28;20519;-83
2022/10/04 04:19:41;;;;;;;10.38;4.47;;;11.00;99.90;;;;;;5109461;28;20492;-83
2022/10/04 04:22:15;;;;;;;9.23;4.80;;;11.20;99.90;;;;;;5092768;28;20075;-83
2022/10/04 04:24:43;;;;;;;7.93;4.70;;;11.00;99.90;;;;;;5109484;28;20036;-83
2022/10/04 04:27:11;;;;;;;9.38;4.15;;;11.00;99.90;;;;;;5109549;28;20399;-83
2022/10/04 04:29:59;;;;;;;13.25;4.90;;;11.00;99.90;;;;;;5109287;28;20528;-83
2022/10/04 04:32:40;;;;;;;9.90;4.40;;;11.00;99.90;;;;;;5093111;28;20401;-83
2022/10/04 04:35:21;;;;;;;12.43;4.47;;;11.00;99.90;;;;;;5109259;28;20559;-83
2022/10/04 04:38:03;;;;;;;10.65;4.35;;;11.00;99.90;;;;;;5109478;28;20079;-83
2022/10/04 04:40:29;;;;;;;10.98;4.60;;;11.00;99.90;;;;;;5109721;28;20032;-83
2022/10/04 04:43:00;;;;;;;13.07;5.03;;;11.00;99.90;;;;;;5109381;28;20032;-83
2022/10/04 04:45:29;;;;;;;9.82;4.70;;;11.00;99.90;;;;;;5109872;28;20075;-83
2022/10/04 04:47:57;;;;;;;11.77;4.82;;;11.00;99.90;;;;;;5075056;28;20101;-83
2022/10/04 04:50:29;;;;;;;8.98;4.70;;;11.00;99.90;;;;;;5073092;28;20036;-83
2022/10/04 04:53:05;;;;;;;13.95;5.20;;;11.00;99.90;;;;;;5105287;28;20040;-83
2022/10/04 04:55:45;;;;;;;12.20;5.05;;;11.00;99.90;;;;;;5088631;28;20404;-83
2022/10/04 04:58:20;;;;;;;8.30;3.75;;;11.00;99.90;;;;;;5108405;28;20048;-83
2022/10/04 05:01:00;;;;;;;8.05;4.25;;;11.00;99.90;;;;;;5129606;28;20075;-83
2022/10/04 05:03:29;;;;;;;11.55;4.40;;;11.10;99.90;;;;;;5112686;28;20178;-83
2022/10/04 05:06:01;;;;;;;14.25;5.75;;;11.00;99.90;;;;;;5113018;28;20036;-82
2022/10/04 05:08:30;;;;;;;9.20;4.60;;;11.00;99.90;;;;;;5097301;28;20100;-83
2022/10/04 05:11:07;;;;;;;8.65;4.95;;;10.90;99.90;;;;;;5112734;28;20511;-82
2022/10/04 05:13:44;;;;;;;13.30;5.53;;;10.90;99.90;;;;;;5112905;28;20515;-83
2022/10/04 05:16:26;;;;;;;13.18;4.68;;;10.90;99.90;;;;;;5112811;28;20043;-83
2022/10/04 05:19:01;;;;;;;8.35;4.43;;;10.90;99.90;;;;;;5112788;28;20174;-83
2022/10/04 05:21:33;;;;;;;14.57;5.25;;;10.80;99.90;;;;;;5112758;28;20040;-83
2022/10/04 05:24:35;;;;;;;11.13;5.30;;;10.80;99.90;;;;;;5096477;28;20042;-83
2022/10/04 05:27:15;;;;;;;9.18;4.88;;;10.80;99.90;;;;;;5086310;28;20048;-83
2022/10/04 05:30:08;;;;;;;11.95;5.57;;;10.70;99.90;;;;;;5112524;28;20122;-83
2022/10/04 05:33:04;;;;;;;9.95;4.82;;;10.70;99.90;;;;;;5112270;28;20400;-83
2022/10/04 05:35:47;;;;;;;13.30;5.43;;;10.70;99.90;;;;;;5112224;28;20040;-83
2022/10/04 05:38:43;;;;;;;9.75;5.05;;;10.60;99.90;;;;;;5128844;28;20502;-83
2022/10/04 05:41:34;;;;;;;12.75;5.70;;;10.60;99.90;;;;;;5098437;28;20040;-83
2022/10/04 05:44:16;;;;;;;13.00;5.70;;;10.50;99.90;;;;;;5111652;28;20127;-83
2022/10/04 05:46:43;;;;;;;10.38;5.60;;;10.50;99.90;;;;;;5112027;28;20462;-83
2022/10/04 05:49:14;;;;;;;12.95;5.22;;;10.50;99.90;;;;;;5112052;28;20052;-83
2022/10/04 05:51:49;;;;;;;9.90;5.00;;;10.40;99.90;;;;;;5112180;28;20044;-83
2022/10/04 05:54:22;;;;;;;12.20;5.60;;;10.40;99.90;;;;;;5112341;28;20127;-83
2022/10/04 05:56:56;;;;;;;11.13;5.47;;;10.30;99.90;;;;;;5111596;28;20087;-83
2022/10/04 05:59:44;;;;;;;11.20;5.25;;;10.30;99.90;;;;;;5128575;28;20117;-83
2022/10/04 06:02:17;;;;;;;11.00;5.30;;;10.30;99.90;;;;;;5109692;28;20827;-83
2022/10/04 06:05:06;;;;;;;10.18;5.10;;;10.20;99.90;;;;;;5111909;28;20488;-83
2022/10/04 06:07:54;;;;;;;12.57;5.05;;;10.20;99.90;;;;;;5108496;28;20044;-83
2022/10/04 06:11:02;;;;;;;9.73;5.15;;;10.20;99.90;;;;;;5090965;28;20041;-84
2022/10/04 06:13:51;;;;;;;13.52;5.30;;;10.10;99.90;;;;;;5091940;28;20529;-83
2022/10/04 06:16:18;;;;;;;11.02;5.65;;;10.20;99.90;;;;;;5091481;28;20131;-83
2022/10/04 06:18:51;;;;;;;13.77;5.07;;;10.10;99.90;;;;;;5106852;28;20039;-83
2022/10/04 06:21:29;;;;;;;12.10;5.57;;;10.10;99.90;;;;;;5111037;28;20071;-83
2022/10/04 06:24:05;;;;;;;10.07;5.20;;;10.20;99.90;;;;;;5088299;28;20037;-83
2022/10/04 06:26:42;;;;;;;12.63;5.13;;;10.20;99.90;;;;;;5127027;28;20040;-83
2022/10/04 06:29:21;;;;;;;10.65;5.63;;;10.20;99.90;;;;;;5128080;28;20036;-83
2022/10/04 06:32:07;;;;;;;14.27;5.97;;;10.20;99.90;;;;;;5111357;28;20161;-83
2022/10/04 06:34:57;;;;;;;16.13;6.50;;;10.30;99.90;;;;;;5111598;28;20925;-83
2022/10/04 06:37:59;;;;;;;11.65;5.57;;;10.30;99.90;;;;;;5127781;28;20076;-83
2022/10/04 06:41:08;;;;;;;11.43;5.38;;;10.30;99.90;;;;;;5104366;28;20043;-83
2022/10/04 06:43:50;;;;;;;13.63;6.05;;;10.40;99.90;;;;;;5107108;28;20078;-83
2022/10/04 06:46:30;;;;;;;14.02;5.90;;;10.40;99.90;;;;;;5127351;28;20028;-83
2022/10/04 06:49:12;;;;;;;11.57;5.90;;;10.40;99.90;;;;;;5110881;28;20032;-83
2022/10/04 06:52:01;;;;;;;12.48;6.20;;;10.40;99.90;;;;;;5110663;28;20040;-83
2022/10/04 06:55:05;;;;;;;16.83;6.55;;;10.50;99.90;;;;;;5110915;28;20377;-84
2022/10/04 06:57:39;;;;;;;12.23;5.72;;;10.60;99.90;;;;;;5127182;28;20508;-83
2022/10/04 07:00:22;;;;;;;13.20;6.07;;;10.60;99.90;;;;;;5135258;28;20089;-83
2022/10/04 07:03:19;;;;;;;21.73;8.02;;;10.60;99.90;;;;;;5094248;28;20040;-83
2022/10/04 07:05:49;;;;;;;;;;;10.70;99.90;;;;;;5109891;28;20043;-83
2022/10/04 07:08:41;;;;;;;11.77;5.78;;;10.70;99.90;;;;;;5110355;28;20362;-82
2022/10/04 07:11:20;;;;;;;14.73;6.43;;;10.80;99.90;;;;;;5102796;28;20135;-82
2022/10/04 07:14:19;;;;;;;17.70;6.40;;;10.90;99.90;;;;;;5101155;28;20048;-83
2022/10/04 07:16:50;;;;;;;10.98;6.30;;;11.00;99.90;;;;;;5090398;28;20131;-83
2022/10/04 07:19:19;;;;;;;12.70;5.78;;;11.00;99.90;;;;;;5121646;28;20505;-82
2022/10/04 07:21:56;;;;;;;16.25;6.63;;;11.10;99.90;;;;;;5110025;28;20551;-83
2022/10/04 07:24:38;;;;;;;16.73;6.60;;;11.20;99.90;;;;;;5126997;28;20039;-85
2022/10/04 07:27:11;;;;;;;11.23;6.13;;;11.30;99.90;;;;;;5110416;28;20048;-82
2022/10/04 07:29:40;;;;;;;15.48;6.43;;;11.40;99.90;;;;;;5110207;28;20518;-83
2022/10/04 07:32:19;;;;;;;15.30;6.60;;;11.50;99.90;;;;;;5093225;28;20043;-83
2022/10/04 07:35:01;;;;;;;13.07;5.80;;;11.60;99.90;;;;;;5110110;28;20100;-83
2022/10/04 07:37:33;;;;;;;12.05;6.18;;;11.70;99.90;;;;;;5106984;28;20223;-83
2022/10/04 07:40:17;;;;;;;12.00;6.47;;;11.70;99.90;;;;;;5111317;28;20033;-83
2022/10/04 07:42:44;;;;;;;10.30;5.45;;;11.80;99.90;;;;;;5109048;28;20051;-84
2022/10/04 07:45:22;;;;;;;13.00;6.25;;;11.80;99.90;;;;;;5108481;28;20032;-83
2022/10/04 07:47:49;;;;;;;14.10;6.32;;;11.90;99.90;;;;;;5106907;28;20439;-83
2022/10/04 07:50:35;;;;;;;10.98;6.13;;;11.90;99.90;;;;;;5087777;28;20086;-83
2022/10/04 07:53:14;;;;;;;11.48;5.25;;;12.00;99.90;;;;;;5107483;28;20222;-83
2022/10/04 07:55:47;;;;;;;16.92;5.95;;;12.00;99.90;;;;;;5096092;28;20043;-83
2022/10/04 07:58:38;;;;;;;9.02;5.45;;;12.00;99.90;;;;;;5120895;28;20121;-83
2022/10/04 08:01:28;;;;;;;14.07;5.63;;;12.10;99.90;;;;;;5100112;28;20043;-83
2022/10/04 08:04:13;;;;;;;9.07;4.90;;;12.10;99.90;;;;;;5097563;28;20108;-83
2022/10/04 08:07:02;;;;;;;9.93;4.93;;;12.20;99.90;;;;;;5096605;28;20575;-82
2022/10/04 08:10:01;;;;;;;12.27;5.40;;;12.30;99.90;;;;;;5097864;28;20052;-82
2022/10/04 08:12:48;;;;;;;11.60;4.65;;;12.50;99.90;;;;;;5111070;28;20098;-83
2022/10/04 08:15:28;;;;;;;9.63;4.30;;;12.80;99.90;;;;;;5099062;28;20554;-83
2022/10/04 08:18:04;;;;;;;9.20;4.88;;;13.00;99.90;;;;;;5103140;28;20040;-83
2022/10/04 08:20:51;;;;;;;11.68;4.82;;;13.10;99.90;;;;;;5121525;28;20036;-82
2022/10/04 08:23:26;;;;;;;13.13;5.32;;;13.20;99.90;;;;;;5107008;28;20032;-83
2022/10/04 08:26:31;;;;;;;;;;;13.40;99.90;;;;;;5123808;28;20039;-83
2022/10/04 08:32:24;;;;;;;12.25;5.55;;;13.70;99.90;;;;;;5079744;28;20516;-83
2022/10/04 08:34:54;;;;;;;10.55;5.35;;;13.60;99.90;;;;;;5099631;28;20050;-82
2022/10/04 08:37:40;;;;;;;17.23;5.63;;;13.70;99.90;;;;;;5101554;28;20060;-83
2022/10/04 08:40:18;;;;;;;10.15;5.05;;;13.60;99.90;;;;;;5102809;28;20064;-83
2022/10/04 08:43:07;;;;;;;13.13;6.15;;;13.70;99.90;;;;;;5097490;28;20127;-84
2022/10/04 08:45:45;;;;;;;10.35;5.43;;;13.60;99.90;;;;;;5098284;28;20032;-83
2022/10/04 08:48:18;;;;;;;13.13;5.07;;;13.60;99.90;;;;;;5120385;28;20040;-83
2022/10/04 08:51:05;;;;;;;14.43;5.32;;;13.50;99.90;;;;;;5108660;28;20048;-83
2022/10/04 08:53:48;;;;;;;15.20;5.57;;;13.50;99.90;;;;;;5101769;28;20404;-82
2022/10/04 08:56:37;;;;;;;11.98;5.53;;;13.40;99.90;;;;;;5106355;28;20036;-82
2022/10/04 08:59:32;;;;;;;18.17;5.88;;;13.40;99.90;;;;;;5111223;28;20040;-83
2022/10/04 09:02:08;;;;;;;12.13;5.25;;;13.30;99.90;;;;;;5107676;28;20115;-83
2022/10/04 09:04:40;;;;;;;13.75;5.53;;;13.30;99.90;;;;;;5103179;28;20040;-83
2022/10/04 09:07:26;;;;;;;13.70;5.45;;;13.40;99.90;;;;;;5107932;28;20040;-83
2022/10/04 09:10:27;;;;;;;10.90;4.85;;;13.50;99.90;;;;;;5107809;28;20039;-82
2022/10/04 09:13:21;;;;;;;13.48;5.65;;;13.60;99.90;;;;;;5094088;28;20063;-82
2022/10/04 09:16:03;;;;;;;13.07;6.18;;;13.80;99.90;;;;;;5107402;28;20043;-83
2022/10/04 09:19:01;;;;;;;12.75;5.45;;;13.90;99.90;;;;;;5078747;28;20496;-82
2022/10/04 09:21:56;;;;;;;12.35;5.20;;;14.00;99.90;;;;;;5104419;28;20036;-82
2022/10/04 09:24:50;;;;;;;7.90;4.38;;;14.10;99.90;;;;;;5102752;28;20127;-84
2022/10/04 09:27:48;;;;;;;7.47;3.80;;;14.30;99.90;;;;;;5117877;28;20036;-83
2022/10/04 09:30:20;;;;;;;9.95;4.05;;;14.40;99.90;;;;;;5119031;28;20036;-83
2022/10/04 09:33:08;;;;;;;10.55;4.03;;;14.50;99.90;;;;;;5105347;28;20040;-83
2022/10/04 09:35:50;;;;;;;9.82;3.78;;;14.60;99.90;;;;;;5101350;28;20078;-83
2022/10/04 09:38:41;;;;;;;5.30;3.22;;;14.60;99.90;;;;;;5106836;28;20111;-83
2022/10/04 09:41:10;;;;;;;11.95;3.75;;;14.70;99.90;;;;;;5101631;28;20036;-82
2022/10/04 09:44:32;;;;;;;8.20;3.50;;;14.80;99.90;;;;;;5099409;28;20476;-82
2022/10/04 09:47:30;;;;;;;11.25;3.88;;;14.90;99.90;;;;;;5105447;28;20407;-82
2022/10/04 09:50:25;;;;;;;9.77;3.58;;;15.00;99.90;;;;;;5112427;28;20040;-83
2022/10/04 09:53:29;;;;;;;7.37;3.23;;;15.10;99.90;;;;;;5102938;28;20184;-83
2022/10/04 09:56:31;;;;;;;9.48;3.25;;;15.10;99.90;;;;;;5119526;28;20416;-83
2022/10/04 09:59:25;;;;;;;8.63;3.20;;;15.20;99.90;;;;;;5063357;28;20056;-83
2022/10/04 10:02:27;;;;;;;7.82;3.08;;;15.20;99.90;;;;;;5098557;28;20052;-83
2022/10/04 10:05:32;;;;;;;11.63;2.90;;;15.20;99.90;;;;;;5096306;28;20040;-83
2022/10/04 10:08:11;;;;;;;4.72;2.80;;;15.40;99.90;;;;;;5112396;28;20044;-83
2022/10/04 10:14:02;;;;;;;8.82;2.85;;;15.30;99.90;;;;;;5122853;28;20046;-83
2022/10/04 10:16:52;;;;;;;8.05;2.50;;;15.40;99.90;;;;;;5108254;28;20080;-82
2022/10/04 10:19:43;;;;;;;8.57;3.13;;;15.40;99.90;;;;;;5101922;28;20519;-83
2022/10/04 10:22:47;;;;;;;6.88;2.50;;;15.50;99.90;;;;;;5111961;28;20068;-83
2022/10/04 10:25:31;;;;;;;8.38;3.17;;;15.60;99.90;;;;;;5111644;28;20484;-83
2022/10/04 10:28:18;;;;;;;7.28;2.90;;;15.70;99.90;;;;;;5097374;28;20577;-82
2022/10/04 10:30:48;;;;;;;9.32;3.00;;;15.70;99.90;;;;;;5101737;28;20075;-83
2022/10/04 10:33:57;;;;;;;7.93;2.83;;;15.80;99.90;;;;;;5110870;28;20054;-84
2022/10/04 10:36:48;;;;;;;10.07;2.72;;;15.90;99.90;;;;;;5106123;28;20044;-83
2022/10/04 10:39:34;;;;;;;7.38;2.70;;;16.00;99.90;;;;;;5123012;28;20056;-84
2022/10/04 10:42:26;;;;;;;10.07;2.72;;;16.00;99.90;;;;;;5102937;28;20028;-84
2022/10/04 10:45:14;;;;;;;5.45;2.28;;;16.00;99.90;;;;;;5125898;28;20044;-84
2022/10/04 10:48:03;;;;;;;6.55;2.25;;;16.10;99.90;;;;;;5110963;28;20086;-82
2022/10/04 10:50:58;;;;;;;8.35;2.63;;;16.10;99.90;;;;;;5106342;28;20044;-83
2022/10/04 10:53:40;;;;;;;8.52;2.47;;;16.10;99.90;;;;;;5108773;28;20412;-83
2022/10/04 10:56:07;;;;;;;6.90;2.70;;;16.20;99.90;;;;;;5090305;28;20622;-83
2022/10/04 10:59:01;;;;;;;7.80;2.90;;;16.20;99.90;;;;;;5109345;28;20048;-83
2022/10/04 11:01:52;;;;;;;10.88;2.30;;;16.20;99.90;;;;;;5110683;28;20097;-83
2022/10/04 11:04:42;;;;;;;7.43;2.75;;;16.20;99.90;;;;;;5110456;28;20048;-84
2022/10/04 11:07:36;;;;;;;6.80;2.60;;;16.30;99.90;;;;;;5123652;28;20562;-83
2022/10/04 11:10:13;;;;;;;7.57;2.80;;;16.30;99.90;;;;;;5104460;28;20395;-84
2022/10/04 11:12:39;;;;;;;7.80;2.63;;;16.20;99.90;;;;;;5121362;28;20046;-83
2022/10/04 11:15:37;;;;;;;6.60;3.17;;;16.30;99.90;;;;;;5108771;28;20037;-83
2022/10/04 11:18:26;;;;;;;7.60;2.70;;;16.30;99.90;;;;;;5110575;28;20071;-83
2022/10/04 11:21:28;;;;;;;8.63;2.63;;;16.30;99.90;;;;;;5109635;28;21009;-83
2022/10/04 11:24:17;;;;;;;5.50;2.70;;;16.30;99.90;;;;;;5109880;28;20109;-83
2022/10/04 11:26:46;;;;;;;6.57;2.70;;;16.40;99.90;;;;;;5109974;28;20126;-83
2022/10/04 11:29:31;;;;;;;6.30;2.88;;;16.40;99.90;;;;;;5109372;28;20074;-84
2022/10/04 11:32:01;;;;;;;9.60;2.40;;;16.50;99.90;;;;;;5109763;28;20040;-84
2022/10/04 11:34:56;;;;;;;5.72;2.38;;;16.60;99.90;;;;;;5110424;28;20549;-84
2022/10/04 11:37:46;;;;;;;6.78;2.58;;;16.60;99.90;;;;;;5127265;28;20777;-84
2022/10/04 11:40:39;;;;;;;7.65;2.65;;;16.60;99.90;;;;;;5109652;28;20104;-83
2022/10/04 11:43:30;;;;;;;7.13;3.00;;;16.50;99.90;;;;;;5110234;28;20044;-84
2022/10/04 11:46:19;;;;;;;6.32;2.67;;;16.60;99.90;;;;;;5109484;28;20039;-83
2022/10/04 11:49:10;;;;;;;5.70;2.17;;;16.60;99.90;;;;;;5101937;28;20111;-84
2022/10/04 11:51:59;;;;;;;5.13;2.03;;;16.60;99.90;;;;;;5106261;28;20039;-83
2022/10/04 11:54:29;;;;;;;4.70;2.17;;;16.60;99.90;;;;;;5109818;28;20047;-83
2022/10/04 11:57:25;;;;;;;5.80;2.35;;;16.70;99.90;;;;;;5125262;28;20063;-84
2022/10/04 12:00:01;;;;;;;3.80;2.10;;;16.70;99.90;;;;;;5107293;28;20032;-83
2022/10/04 12:03:04;;;;;;;6.40;2.40;;;16.70;99.90;;;;;;5093531;28;20075;-84
2022/10/04 12:05:40;;;;;;;9.05;2.28;;;16.70;99.90;;;;;;5108002;28;20044;-84
2022/10/04 12:08:36;;;;;;;4.43;2.40;;;16.70;99.90;;;;;;5107366;28;20052;-84
2022/10/04 12:11:14;;;;;;;6.75;2.20;;;16.70;99.90;;;;;;5117339;28;20036;-83
2022/10/04 12:14:23;;;;;;;6.00;2.47;;;16.70;99.90;;;;;;5118280;28;20047;-83
2022/10/04 12:17:14;;;;;;;7.22;2.35;;;16.80;99.90;;;;;;5101429;28;20079;-83
2022/10/04 12:20:18;;;;;;;7.57;2.30;;;16.80;99.90;;;;;;5117655;28;20040;-83
2022/10/04 12:22:59;;;;;;;7.25;2.67;;;16.80;99.90;;;;;;5096389;28;20047;-84
2022/10/04 12:25:29;;;;;;;5.88;2.40;;;16.80;99.90;;;;;;5108283;28;20040;-83
2022/10/04 12:28:14;;;;;;;5.32;2.35;;;16.70;99.90;;;;;;5109211;28;20035;-84
2022/10/04 12:30:51;;;;;;;10.20;2.63;;;16.70;99.90;;;;;;5125883;28;20048;-83
2022/10/04 12:33:53;;;;;;;6.25;2.38;;;16.80;99.90;;;;;;5109749;28;20093;-84
2022/10/04 12:36:52;;;;;;;6.55;2.80;;;16.80;99.90;;;;;;5119311;28;20052;-82
2022/10/04 12:39:43;;;;;;;7.78;2.67;;;16.80;99.90;;;;;;5108736;28;20122;-84
2022/10/04 12:42:31;;;;;;;9.75;2.22;;;16.80;99.90;;;;;;5106447;28;20095;-84
2022/10/04 12:45:51;;;;;;;5.88;2.50;;;16.80;99.90;;;;;;5108531;28;20123;-84
2022/10/04 12:48:54;;;;;;;5.93;2.40;;;16.80;99.90;;;;;;5077427;28;20048;-83
2022/10/04 12:52:03;;;;;;;6.93;2.30;;;16.80;99.90;;;;;;5108893;28;20553;-84
2022/10/04 12:55:08;;;;;;;6.85;2.47;;;16.90;99.90;;;;;;5108878;28;20458;-84
2022/10/04 12:58:03;;;;;;;6.03;2.20;;;16.80;99.90;;;;;;5108523;28;20059;-83
2022/10/04 13:00:40;;;;;;;5.68;1.88;;;16.80;99.90;;;;;;5108094;28;20050;-84
2022/10/04 13:03:39;;;;;;;9.82;2.50;;;16.80;99.90;;;;;;5102408;28;20547;-84
2022/10/04 13:06:13;;;;;;;8.43;2.30;;;16.90;99.90;;;;;;5085539;28;20041;-83
2022/10/04 13:09:04;;;;;;;7.75;1.90;;;16.90;99.90;;;;;;5095309;28;20048;-84
2022/10/04 13:12:15;;;;;;;4.38;1.58;;;16.90;99.90;;;;;;5109186;28;20036;-83
2022/10/04 13:14:48;;;;;;;6.82;2.17;;;16.90;99.90;;;;;;5102266;28;20043;-83
2022/10/04 13:17:48;;;;;;;5.47;2.15;;;17.00;99.90;;;;;;5094966;28;20501;-83
2022/10/04 13:20:38;;;;;;;8.15;2.03;;;17.00;99.90;;;;;;5099012;28;20051;-84
2022/10/04 13:23:24;;;;;;;5.88;2.15;;;17.00;99.90;;;;;;5112854;28;20582;-83
2022/10/04 13:26:15;;;;;;;5.20;1.60;;;17.00;99.90;;;;;;5097511;28;20038;-82
2022/10/04 13:28:54;;;;;;;4.95;1.58;;;17.00;99.90;;;;;;5112753;28;20453;-83
2022/10/04 13:31:47;;;;;;;5.60;1.85;;;17.00;99.90;;;;;;5116630;28;20040;-83
2022/10/04 13:34:49;;;;;;;3.70;1.88;;;17.00;99.90;;;;;;5116316;28;20045;-83
2022/10/04 13:37:47;;;;;;;6.20;1.90;;;17.00;99.90;;;;;;5097380;28;20040;-83
2022/10/04 13:40:49;;;;;;;5.28;1.92;;;17.00;99.90;;;;;;5107100;28;20048;-84
2022/10/04 13:43:56;;;;;;;6.53;2.20;;;17.00;99.90;;;;;;5113038;28;20072;-83
2022/10/04 13:46:57;;;;;;;5.60;2.10;;;17.00;99.90;;;;;;5112126;28;20109;-83
2022/10/04 13:49:48;;;;;;;6.53;2.05;;;17.00;99.90;;;;;;5098261;28;20119;-85
2022/10/04 13:58:12;;;;;;;6.60;2.17;;;17.00;99.90;;;;;;5129207;28;20056;-85
2022/10/04 14:00:57;;;;;;;7.45;2.40;;;17.00;99.90;;;;;;5112386;28;20433;-84
2022/10/04 14:03:58;;;;;;;7.32;2.50;;;17.00;99.90;;;;;;5129459;28;20040;-85
2022/10/04 14:06:47;;;;;;;6.53;2.10;;;17.00;99.90;;;;;;5112593;28;20047;-85
2022/10/04 14:09:25;;;;;;;6.32;2.17;;;16.90;99.90;;;;;;5112456;28;20127;-85
2022/10/04 14:12:01;;;;;;;5.60;2.22;;;16.80;99.90;;;;;;5112254;28;20040;-84
2022/10/04 14:14:52;;;;;;;5.22;2.20;;;16.80;99.90;;;;;;5102416;28;20043;-84